createdAt,value
2018-03-02T00:01:28.548Z,0.66
2018-03-02T00:03:56.194Z,0.67
2018-03-02T00:06:23.786Z,0.63
2018-03-02T00:08:51.634Z,0.47
2018-03-02T00:11:19.228Z,-0.01
2018-03-02T00:13:46.790Z,0.07
2018-03-02T00:16:14.649Z,0.09
2018-03-02T00:18:42.254Z,0.00
2018-03-02T00:21:09.827Z,0.05
2018-03-02T00:23:37.392Z,0.04
2018-03-02T00:26:04.996Z,-0.17
2018-03-02T00:28:32.694Z,-0.23
2018-03-02T00:31:00.262Z,-0.41
2018-03-02T00:33:28.486Z,-0.49
2018-03-02T00:35:56.371Z,-0.62
2018-03-02T00:38:24.107Z,-0.66
2018-03-02T00:40:51.708Z,-0.75
2018-03-02T00:43:19.366Z,-0.77
2018-03-02T00:45:49.775Z,-1.09
2018-03-02T00:48:17.810Z,-1.32
2018-03-02T00:50:45.372Z,-1.38
2018-03-02T00:53:12.950Z,-1.29
2018-03-02T00:55:40.610Z,-1.40
2018-03-02T00:58:08.170Z,-1.29
2018-03-02T01:00:35.728Z,-1.25
2018-03-02T01:03:03.323Z,-1.28
2018-03-02T01:05:30.909Z,-1.34
2018-03-02T01:07:58.653Z,-1.53
2018-03-02T01:10:26.272Z,-1.55
2018-03-02T01:12:53.826Z,-1.80
2018-03-02T01:15:21.432Z,-1.94
2018-03-02T01:17:50.050Z,-1.89
2018-03-02T01:20:17.620Z,-1.96
2018-03-02T01:22:45.187Z,-2.06
2018-03-02T01:25:12.792Z,-2.03
2018-03-02T01:27:40.362Z,-2.10
2018-03-02T01:30:08.000Z,-2.14
2018-03-02T01:32:35.597Z,-2.20
2018-03-02T01:35:03.154Z,-2.15
2018-03-02T01:37:30.719Z,-2.11
2018-03-02T01:39:58.358Z,-2.14
2018-03-02T01:42:25.955Z,-2.20
2018-03-02T01:44:53.580Z,-2.30
2018-03-02T01:47:21.243Z,-2.25
2018-03-02T01:49:48.907Z,-2.22
2018-03-02T01:52:16.479Z,-2.30
2018-03-02T01:54:44.066Z,-2.41
2018-03-02T01:57:11.624Z,-2.32
2018-03-02T01:59:39.191Z,-2.37
2018-03-02T02:02:06.801Z,-2.46
2018-03-02T02:04:34.370Z,-2.55
2018-03-02T02:07:01.939Z,-2.62
2018-03-02T02:09:29.643Z,-2.60
2018-03-02T02:11:57.280Z,-2.73
2018-03-02T02:14:24.849Z,-2.92
2018-03-02T02:16:52.454Z,-3.06
2018-03-02T02:19:20.068Z,-3.08
2018-03-02T02:21:47.625Z,-3.13
2018-03-02T02:24:15.229Z,-3.17
2018-03-02T02:26:42.794Z,-3.15
2018-03-02T02:29:10.361Z,-3.11
2018-03-02T02:31:37.954Z,-3.03
2018-03-02T02:34:05.626Z,-2.99
2018-03-02T02:36:33.182Z,-3.18
2018-03-02T02:39:00.783Z,-3.00
2018-03-02T02:41:28.361Z,-2.94
2018-03-02T02:43:55.990Z,-2.98
2018-03-02T02:46:23.588Z,-3.07
2018-03-02T02:48:51.146Z,-3.15
2018-03-02T02:51:18.722Z,-3.16
2018-03-02T02:53:46.408Z,-3.19
2018-03-02T02:56:13.968Z,-3.22
2018-03-02T02:58:41.588Z,-3.14
2018-03-02T03:01:09.196Z,-3.10
2018-03-02T03:03:36.762Z,-3.18
2018-03-02T03:06:04.323Z,-3.19
2018-03-02T03:08:31.923Z,-3.19
2018-03-02T03:10:59.490Z,-3.26
2018-03-02T03:13:27.169Z,-3.30
2018-03-02T03:15:54.788Z,-3.31
2018-03-02T03:18:22.363Z,-3.39
2018-03-02T03:20:49.945Z,-3.45
2018-03-02T03:23:17.531Z,-3.43
2018-03-02T03:25:45.100Z,-3.41
2018-03-02T03:28:12.667Z,-3.45
2018-03-02T03:30:40.254Z,-3.35
2018-03-02T03:33:07.813Z,-3.31
2018-03-02T03:35:35.385Z,-3.25
2018-03-02T03:38:02.987Z,-3.21
2018-03-02T03:40:30.552Z,-3.16
2018-03-02T03:42:58.184Z,-3.18
2018-03-02T03:45:25.785Z,-3.06
2018-03-02T03:47:53.346Z,-3.04
2018-03-02T03:50:21.059Z,-3.04
2018-03-02T03:52:48.728Z,-3.04
2018-03-02T03:55:16.283Z,-3.15
2018-03-02T03:57:43.842Z,-3.18
2018-03-02T04:00:11.461Z,-3.33
2018-03-02T04:02:39.027Z,-3.47
2018-03-02T04:05:06.652Z,-3.44
2018-03-02T04:07:34.309Z,-3.38
2018-03-02T04:10:01.845Z,-3.37
2018-03-02T04:12:29.409Z,-3.30
2018-03-02T04:14:57.021Z,-3.24
2018-03-02T04:17:24.588Z,-3.17
2018-03-02T04:19:52.158Z,-3.06
2018-03-02T04:22:19.765Z,-3.06
2018-03-02T04:24:47.318Z,-3.00
2018-03-02T04:27:14.887Z,-2.89
2018-03-02T04:29:42.486Z,-2.83
2018-03-02T04:32:10.057Z,-2.84
2018-03-02T04:34:37.631Z,-2.76
2018-03-02T04:37:05.238Z,-2.82
2018-03-02T04:39:32.827Z,-2.86
2018-03-02T04:42:00.390Z,-2.83
2018-03-02T04:44:28.034Z,-2.81
2018-03-02T04:46:55.606Z,-2.83
2018-03-02T04:49:23.175Z,-2.86
2018-03-02T04:51:50.782Z,-2.77
2018-03-02T04:54:18.351Z,-2.76
2018-03-02T04:56:45.902Z,-2.93
2018-03-02T04:59:13.498Z,-2.83
2018-03-02T05:01:41.136Z,-2.86
2018-03-02T05:04:08.698Z,-2.81
2018-03-02T05:06:36.399Z,-2.79
2018-03-02T05:09:04.129Z,-2.73
2018-03-02T05:11:31.866Z,-2.64
2018-03-02T05:13:59.470Z,-2.52
2018-03-02T05:16:27.029Z,-2.42
2018-03-02T05:18:54.594Z,-2.35
2018-03-02T05:21:22.200Z,-2.37
2018-03-02T05:23:49.800Z,-2.38
2018-03-02T05:26:17.363Z,-2.32
2018-03-02T05:28:45.089Z,-2.17
2018-03-02T05:31:12.666Z,-2.08
2018-03-02T05:33:40.223Z,-2.08
2018-03-02T05:36:07.860Z,-2.06
2018-03-02T05:38:35.435Z,-2.13
2018-03-02T05:41:02.997Z,-2.15
2018-03-02T05:43:30.599Z,-2.18
2018-03-02T05:45:58.173Z,-2.21
2018-03-02T05:48:25.746Z,-2.20
2018-03-02T05:50:53.345Z,-2.21
2018-03-02T05:53:20.910Z,-2.11
2018-03-02T05:55:48.466Z,-2.00
2018-03-02T05:58:16.062Z,-2.10
2018-03-02T06:00:43.664Z,-2.11
2018-03-02T06:03:11.226Z,-2.27
2018-03-02T06:05:38.851Z,-2.11
2018-03-02T06:08:06.410Z,-1.87
2018-03-02T06:10:33.988Z,-1.67
2018-03-02T06:13:01.588Z,-1.50
2018-03-02T06:15:29.144Z,-1.34
2018-03-02T06:17:56.721Z,-1.25
2018-03-02T06:20:24.318Z,-1.20
2018-03-02T06:22:51.885Z,-1.19
2018-03-02T06:25:19.480Z,-1.16
2018-03-02T06:27:47.164Z,-1.02
2018-03-02T06:30:14.799Z,-1.20
2018-03-02T06:32:42.368Z,-1.09
2018-03-02T06:35:09.973Z,-1.15
2018-03-02T06:37:37.541Z,-1.19
2018-03-02T06:40:05.174Z,-1.07
2018-03-02T06:42:32.796Z,-0.98
2018-03-02T06:45:00.362Z,-0.86
2018-03-02T06:47:27.939Z,-0.66
2018-03-02T06:49:56.454Z,-0.28
2018-03-02T06:52:24.023Z,-0.19
2018-03-02T06:54:51.599Z,-0.19
2018-03-02T06:57:19.195Z,-0.18
2018-03-02T06:59:46.888Z,-0.43
2018-03-02T07:02:14.464Z,-0.42
2018-03-02T07:04:42.095Z,-0.56
2018-03-02T07:07:09.727Z,-0.78
2018-03-02T07:09:37.294Z,-0.68
2018-03-02T07:12:04.899Z,-0.63
2018-03-02T07:14:32.477Z,-0.69
2018-03-02T07:17:00.063Z,-0.43
2018-03-02T07:19:27.766Z,-0.20
2018-03-02T07:21:55.336Z,-0.14
2018-03-02T07:24:22.908Z,-0.17
2018-03-02T07:26:50.508Z,0.26
2018-03-02T07:29:18.090Z,0.63
2018-03-02T07:31:45.666Z,0.60
2018-03-02T07:34:13.266Z,0.64
2018-03-02T07:36:40.836Z,0.33
2018-03-02T07:39:08.410Z,0.55
2018-03-02T07:41:36.017Z,0.77
2018-03-02T07:44:03.592Z,0.61
2018-03-02T07:46:31.164Z,0.75
2018-03-02T07:48:58.758Z,0.99
2018-03-02T07:51:26.326Z,1.29
2018-03-02T07:53:54.005Z,1.60
2018-03-02T07:56:21.601Z,1.40
2018-03-02T07:58:49.174Z,1.25
2018-03-02T08:01:16.751Z,1.59
2018-03-02T08:03:44.360Z,1.31
2018-03-02T08:06:11.925Z,1.27
2018-03-02T08:08:39.637Z,1.16
2018-03-02T08:11:07.247Z,1.03
2018-03-02T08:13:34.798Z,1.50
2018-03-02T08:16:02.564Z,1.96
2018-03-02T08:18:30.167Z,3.02
2018-03-02T08:20:57.740Z,3.95
2018-03-02T08:23:25.309Z,4.36
2018-03-02T08:25:53.082Z,3.78
2018-03-02T08:28:20.860Z,3.52
2018-03-02T08:30:48.487Z,2.90
2018-03-02T08:33:16.094Z,3.11
2018-03-02T08:35:43.666Z,3.25
2018-03-02T08:38:11.219Z,3.23
2018-03-02T08:40:38.810Z,4.05
2018-03-02T08:43:06.449Z,3.95
2018-03-02T08:45:34.009Z,4.84
2018-03-02T08:48:01.619Z,5.13
2018-03-02T08:50:29.172Z,6.25
2018-03-02T08:52:56.736Z,7.24
2018-03-02T08:55:24.343Z,7.42
2018-03-02T08:57:51.915Z,7.78
2018-03-02T09:00:19.660Z,7.93
2018-03-02T09:02:47.279Z,6.28
2018-03-02T09:05:14.861Z,7.22
2018-03-02T09:07:42.459Z,8.02
2018-03-02T09:10:10.067Z,8.43
2018-03-02T09:12:37.629Z,9.87
2018-03-02T09:15:05.215Z,10.20
2018-03-02T09:17:32.819Z,9.80
2018-03-02T09:20:00.414Z,8.66
2018-03-02T09:22:27.985Z,8.10
2018-03-02T09:24:55.603Z,8.43
2018-03-02T09:27:23.323Z,7.94
2018-03-02T09:29:50.891Z,7.52
2018-03-02T09:32:18.496Z,7.05
2018-03-02T09:34:46.154Z,7.82
2018-03-02T09:37:13.711Z,8.10
2018-03-02T09:39:41.321Z,8.32
2018-03-02T09:42:09.121Z,8.42
2018-03-02T09:44:36.678Z,8.22
2018-03-02T09:47:04.274Z,9.01
2018-03-02T09:49:32.085Z,9.69
2018-03-02T09:51:59.764Z,8.77
2018-03-02T09:54:27.407Z,8.35
2018-03-02T09:56:55.088Z,7.84
2018-03-02T09:59:22.741Z,8.16
2018-03-02T10:01:50.358Z,8.69
2018-03-02T10:04:17.934Z,8.45
2018-03-02T10:06:45.573Z,7.42
2018-03-02T10:09:13.149Z,7.95
2018-03-02T10:11:40.719Z,7.46
2018-03-02T10:14:08.301Z,7.86
2018-03-02T10:16:35.902Z,8.20
2018-03-02T10:19:03.507Z,7.71
2018-03-02T10:21:31.330Z,6.57
2018-03-02T10:23:58.957Z,6.45
2018-03-02T10:26:26.516Z,6.03
2018-03-02T10:28:54.063Z,6.17
2018-03-02T10:31:21.745Z,5.08
2018-03-02T10:33:49.345Z,4.54
2018-03-02T10:36:17.066Z,4.42
2018-03-02T10:38:44.675Z,4.29
2018-03-02T10:41:12.391Z,4.35
2018-03-02T10:43:40.053Z,4.75
2018-03-02T10:46:07.689Z,5.10
2018-03-02T10:48:35.357Z,5.14
2018-03-02T10:51:02.949Z,4.84
2018-03-02T10:53:30.545Z,4.06
2018-03-02T10:55:58.106Z,4.19
2018-03-02T10:58:25.711Z,3.77
2018-03-02T11:00:53.486Z,3.89
2018-03-02T11:03:22.971Z,3.89
2018-03-02T11:05:50.545Z,3.79
2018-03-02T11:08:18.317Z,3.63
2018-03-02T11:10:45.932Z,3.59
2018-03-02T11:13:13.635Z,3.82
2018-03-02T11:15:41.258Z,3.79
2018-03-02T11:18:08.969Z,3.56
2018-03-02T11:20:36.810Z,3.52
2018-03-02T11:23:04.490Z,3.76
2018-03-02T11:25:32.047Z,3.75
2018-03-02T11:27:59.602Z,3.96
2018-03-02T11:30:27.226Z,3.46
2018-03-02T11:32:54.786Z,3.27
2018-03-02T11:35:22.373Z,3.17
2018-03-02T11:37:49.961Z,3.29
2018-03-02T11:40:17.529Z,3.22
2018-03-02T11:42:45.084Z,3.18
2018-03-02T11:45:12.840Z,3.60
2018-03-02T11:47:40.401Z,3.52
2018-03-02T11:50:07.950Z,3.71
2018-03-02T11:52:35.556Z,4.05
2018-03-02T11:55:03.121Z,4.26
2018-03-02T11:57:30.751Z,4.16
2018-03-02T11:59:58.336Z,3.91
2018-03-02T12:02:25.923Z,3.77
2018-03-02T12:04:53.488Z,3.92
2018-03-02T12:07:21.289Z,4.00
2018-03-02T12:09:50.169Z,4.34
2018-03-02T12:12:17.818Z,4.53
2018-03-02T12:14:47.271Z,5.17
2018-03-02T12:17:14.963Z,5.82
2018-03-02T12:19:42.509Z,5.28
2018-03-02T12:22:10.099Z,5.27
2018-03-02T12:24:37.658Z,4.78
2018-03-02T12:27:05.206Z,4.73
2018-03-02T12:29:32.877Z,4.68
2018-03-02T12:32:00.427Z,4.82
2018-03-02T12:34:27.992Z,4.64
2018-03-02T12:36:55.593Z,4.38
2018-03-02T12:39:23.151Z,4.34
2018-03-02T12:41:50.783Z,4.73
2018-03-02T12:44:18.362Z,4.91
2018-03-02T12:46:45.899Z,5.03
2018-03-02T12:49:13.472Z,4.42
2018-03-02T12:51:41.158Z,3.93
2018-03-02T12:54:08.732Z,3.95
2018-03-02T12:56:36.330Z,4.04
2018-03-02T12:59:04.041Z,4.07
2018-03-02T13:01:31.643Z,3.86
2018-03-02T13:03:59.195Z,3.83
2018-03-02T13:06:27.020Z,3.83
2018-03-02T13:08:54.565Z,3.80
2018-03-02T13:11:22.351Z,3.96
2018-03-02T13:13:50.515Z,3.74
2018-03-02T13:16:18.113Z,3.95
2018-03-02T13:18:45.736Z,3.87
2018-03-02T13:21:13.344Z,3.89
2018-03-02T13:23:40.899Z,4.04
2018-03-02T13:26:08.490Z,3.83
2018-03-02T13:28:51.022Z,3.81
2018-03-02T13:31:18.599Z,3.86
2018-03-02T13:33:58.051Z,3.53
2018-03-02T13:36:25.598Z,3.66
2018-03-02T13:38:53.140Z,3.63
2018-03-02T13:41:32.535Z,3.38
2018-03-02T13:44:00.239Z,3.37
2018-03-02T13:46:28.103Z,3.30
2018-03-02T13:49:07.575Z,3.35
2018-03-02T13:51:35.514Z,3.43
2018-03-02T13:54:03.183Z,3.55
2018-03-02T13:56:42.652Z,3.34
2018-03-02T13:59:10.259Z,3.26
2018-03-02T14:01:37.826Z,3.28
2018-03-02T14:04:17.362Z,3.41
2018-03-02T14:06:45.057Z,2.98
2018-03-02T14:09:13.439Z,2.82
2018-03-02T14:11:41.042Z,2.78
2018-03-02T14:14:08.595Z,2.91
2018-03-02T14:16:36.147Z,3.08
2018-03-02T14:19:03.924Z,3.17
2018-03-02T14:21:31.862Z,3.21
2018-03-02T14:24:00.875Z,3.13
2018-03-02T14:26:31.034Z,3.07
2018-03-02T14:29:00.662Z,2.91
2018-03-02T14:31:29.958Z,2.69
2018-03-02T14:34:00.078Z,2.38
2018-03-02T14:36:29.822Z,2.35
2018-03-02T14:38:59.800Z,2.22
2018-03-02T14:41:29.721Z,2.04
2018-03-02T14:43:58.877Z,1.83
2018-03-02T14:46:28.682Z,1.89
2018-03-02T14:48:58.583Z,1.94
2018-03-02T14:51:28.218Z,1.97
2018-03-02T14:53:57.981Z,2.05
2018-03-02T14:56:27.613Z,1.95
2018-03-02T14:58:56.696Z,1.98
2018-03-02T15:01:26.557Z,1.95
2018-03-02T15:03:56.032Z,1.84
2018-03-02T15:06:25.377Z,1.75
2018-03-02T15:08:54.839Z,1.57
2018-03-02T15:11:24.321Z,1.43
2018-03-02T15:13:53.884Z,1.25
2018-03-02T15:16:23.482Z,1.15
2018-03-02T15:18:53.205Z,1.27
2018-03-02T15:21:23.027Z,1.34
2018-03-02T15:23:52.576Z,1.34
2018-03-02T15:26:22.008Z,1.30
2018-03-02T15:28:51.898Z,1.30
2018-03-02T15:31:22.014Z,1.38
2018-03-02T15:33:51.955Z,1.27
2018-03-02T15:36:21.556Z,1.11
2018-03-02T15:38:51.317Z,1.13
2018-03-02T15:41:21.202Z,1.22
2018-03-02T15:43:50.632Z,1.31
2018-03-02T15:46:20.991Z,1.29
2018-03-02T15:48:50.911Z,1.29
2018-03-02T15:51:20.724Z,1.23
2018-03-02T15:53:48.487Z,1.26
2018-03-02T15:56:16.072Z,1.24
2018-03-02T15:58:43.649Z,1.16
2018-03-02T16:01:11.258Z,1.07
2018-03-02T16:03:38.952Z,1.06
2018-03-02T16:06:06.530Z,1.16
2018-03-02T16:08:34.239Z,1.06
2018-03-02T16:11:01.830Z,0.89
2018-03-02T16:13:29.401Z,0.80
2018-03-02T16:15:56.955Z,0.65
2018-03-02T16:18:24.584Z,0.71
2018-03-02T16:20:52.138Z,0.85
2018-03-02T16:23:20.003Z,0.82
2018-03-02T16:25:47.833Z,0.87
2018-03-02T16:28:15.465Z,0.93
2018-03-02T16:30:43.198Z,1.00
2018-03-02T16:33:10.840Z,0.84
2018-03-02T16:35:38.397Z,0.77
2018-03-02T16:38:05.955Z,0.68
2018-03-02T16:40:34.665Z,0.47
2018-03-02T16:43:02.237Z,0.45
2018-03-02T16:45:29.978Z,0.46
2018-03-02T16:47:57.570Z,0.50
2018-03-02T16:50:25.211Z,0.56
2018-03-02T16:52:52.801Z,0.61
2018-03-02T16:55:20.455Z,0.59
2018-03-02T16:57:48.927Z,0.62
2018-03-02T17:00:16.564Z,0.72
2018-03-02T17:02:44.162Z,0.88
2018-03-02T17:05:11.708Z,0.85
2018-03-02T17:07:39.256Z,0.95
2018-03-02T17:10:06.863Z,1.00
2018-03-02T17:12:34.425Z,1.02
2018-03-02T17:15:01.975Z,1.07
2018-03-02T17:17:29.554Z,1.22
2018-03-02T17:19:57.100Z,1.31
2018-03-02T17:22:24.688Z,1.22
2018-03-02T17:24:52.524Z,1.31
2018-03-02T17:27:20.113Z,1.34
2018-03-02T17:29:47.692Z,1.33
2018-03-02T17:32:15.622Z,1.34
2018-03-02T17:34:48.847Z,1.26
2018-03-02T17:37:16.577Z,1.21
2018-03-02T17:39:44.122Z,1.18
2018-03-02T17:42:11.694Z,1.25
2018-03-02T17:44:39.554Z,1.11
2018-03-02T17:47:07.255Z,1.05
2018-03-02T17:49:34.805Z,0.90
2018-03-02T17:52:02.409Z,0.80
2018-03-02T17:54:29.972Z,0.78
2018-03-02T17:56:57.698Z,0.81
2018-03-02T17:59:25.355Z,0.87
2018-03-02T18:01:52.931Z,0.94
2018-03-02T18:04:20.536Z,0.85
2018-03-02T18:06:48.133Z,0.79
2018-03-02T18:09:15.713Z,0.80
2018-03-02T18:11:43.287Z,0.79
2018-03-02T18:14:10.923Z,0.74
2018-03-02T18:16:38.614Z,0.69
2018-03-02T18:19:06.194Z,0.76
2018-03-02T18:21:33.809Z,0.84
2018-03-02T18:24:01.384Z,0.85
2018-03-02T18:26:28.936Z,0.89
2018-03-02T18:28:56.527Z,0.90
2018-03-02T18:31:24.105Z,0.81
2018-03-02T18:33:51.659Z,0.88
2018-03-02T18:36:20.083Z,0.91
2018-03-02T18:38:47.963Z,0.92
2018-03-02T18:41:15.579Z,0.91
2018-03-02T18:43:43.546Z,0.88
2018-03-02T18:46:11.103Z,0.91
2018-03-02T18:48:38.829Z,0.91
2018-03-02T18:51:06.502Z,0.87
2018-03-02T18:53:34.058Z,0.79
2018-03-02T18:56:01.604Z,0.81
2018-03-02T18:58:29.192Z,0.85
2018-03-02T19:00:56.732Z,0.86
2018-03-02T19:03:24.342Z,0.85
2018-03-02T19:05:51.900Z,0.83
2018-03-02T19:08:19.456Z,0.75
2018-03-02T19:10:47.000Z,0.62
2018-03-02T19:13:14.591Z,0.64
2018-03-02T19:15:42.148Z,0.72
2018-03-02T19:18:09.695Z,0.78
2018-03-02T19:20:37.301Z,0.87
2018-03-02T19:23:04.869Z,0.89
2018-03-02T19:25:32.487Z,0.97
2018-03-02T19:28:00.202Z,1.03
2018-03-02T19:30:27.872Z,1.05
2018-03-02T19:32:55.492Z,1.07
2018-03-02T19:35:23.228Z,1.04
2018-03-02T19:37:51.267Z,0.90
2018-03-02T19:40:19.188Z,0.83
2018-03-02T19:42:47.068Z,0.89
2018-03-02T19:45:15.055Z,1.03
2018-03-02T19:47:43.123Z,1.08
2018-03-02T19:50:10.864Z,1.02
2018-03-02T19:52:38.830Z,0.91
2018-03-02T19:55:06.821Z,0.91
2018-03-02T19:57:34.716Z,0.99
2018-03-02T20:00:02.784Z,0.90
2018-03-02T20:02:30.848Z,0.90
2018-03-02T20:04:58.448Z,0.88
2018-03-02T20:07:26.162Z,0.94
2018-03-02T20:09:54.052Z,0.95
2018-03-02T20:12:21.888Z,0.98
2018-03-02T20:14:49.787Z,0.95
2018-03-02T20:17:17.637Z,0.88
2018-03-02T20:19:45.486Z,0.87
2018-03-02T20:22:13.051Z,0.87
2018-03-02T20:24:40.663Z,0.78
2018-03-02T20:27:08.313Z,0.80
2018-03-02T20:29:35.862Z,0.88
2018-03-02T20:32:03.443Z,0.98
2018-03-02T20:34:30.999Z,1.00
2018-03-02T20:36:58.627Z,1.00
2018-03-02T20:39:26.208Z,1.00
2018-03-02T20:41:53.762Z,0.96
2018-03-02T20:44:21.369Z,0.95
2018-03-02T20:46:48.981Z,0.98
2018-03-02T20:49:16.521Z,1.01
2018-03-02T20:51:44.059Z,1.03
2018-03-02T20:54:11.670Z,1.01
2018-03-02T20:56:39.213Z,1.00
2018-03-02T20:59:06.766Z,1.03
2018-03-02T21:01:34.345Z,1.04
2018-03-02T21:04:01.888Z,1.08
2018-03-02T21:06:29.447Z,1.13
2018-03-02T21:08:57.044Z,1.14
2018-03-02T21:11:24.599Z,1.20
2018-03-02T21:13:52.151Z,1.16
2018-03-02T21:16:19.727Z,1.10
2018-03-02T21:18:47.271Z,1.08
2018-03-02T21:21:14.823Z,1.11
2018-03-02T21:23:42.418Z,1.12
2018-03-02T21:26:09.969Z,1.13
2018-03-02T21:28:37.601Z,1.04
2018-03-02T21:31:05.189Z,0.99
2018-03-02T21:33:32.753Z,1.00
2018-03-02T21:36:00.300Z,1.03
2018-03-02T21:38:27.872Z,1.04
2018-03-02T21:40:55.425Z,1.07
2018-03-02T21:43:22.967Z,1.07
2018-03-02T21:45:50.540Z,1.12
2018-03-02T21:48:18.094Z,1.06
2018-03-02T21:50:45.649Z,1.00
2018-03-02T21:53:13.236Z,0.97
2018-03-02T21:55:40.781Z,0.91
2018-03-02T21:58:08.363Z,0.89
2018-03-02T22:00:35.952Z,0.85
2018-03-02T22:03:03.564Z,0.87
2018-03-02T22:05:31.105Z,0.85
2018-03-02T22:07:58.681Z,0.77
2018-03-02T22:10:26.243Z,0.82
2018-03-02T22:12:53.810Z,0.82
2018-03-02T22:15:21.545Z,0.75
2018-03-02T22:17:49.097Z,0.81
2018-03-02T22:20:16.651Z,0.78
2018-03-02T22:22:44.234Z,0.90
2018-03-02T22:25:11.787Z,0.91
2018-03-02T22:27:39.348Z,0.91
2018-03-02T22:30:06.926Z,0.99
2018-03-02T22:32:34.472Z,1.03
2018-03-02T22:35:02.029Z,1.09
2018-03-02T22:37:29.654Z,1.11
2018-03-02T22:39:57.206Z,1.12
2018-03-02T22:42:24.763Z,1.12
2018-03-02T22:44:52.356Z,1.11
2018-03-02T22:47:19.906Z,1.03
2018-03-02T22:49:47.451Z,0.97
2018-03-02T22:52:15.055Z,1.01
2018-03-02T22:54:42.693Z,0.98
2018-03-02T22:57:10.242Z,0.96
2018-03-02T22:59:37.824Z,1.02
2018-03-02T23:02:05.381Z,1.14
2018-03-02T23:04:32.943Z,1.22
2018-03-02T23:07:00.539Z,1.24
2018-03-02T23:09:28.086Z,1.24
2018-03-02T23:11:55.645Z,1.30
2018-03-02T23:14:23.239Z,1.30
2018-03-02T23:16:50.791Z,1.19
2018-03-02T23:19:18.361Z,1.09
2018-03-02T23:21:45.952Z,1.04
2018-03-02T23:24:13.510Z,1.05
2018-03-02T23:26:41.062Z,1.06
2018-03-02T23:29:08.647Z,0.94
2018-03-02T23:31:36.211Z,0.92
2018-03-02T23:34:03.772Z,0.92
2018-03-02T23:36:31.349Z,0.90
2018-03-02T23:38:58.901Z,0.90
2018-03-02T23:41:26.458Z,0.85
2018-03-02T23:43:54.048Z,0.85
2018-03-02T23:46:21.605Z,0.83
2018-03-02T23:48:49.162Z,0.85
2018-03-02T23:51:16.751Z,0.84
2018-03-02T23:53:44.517Z,0.91
2018-03-02T23:56:12.074Z,0.95
2018-03-02T23:58:39.654Z,0.95
